Time;durP1;ratioP1;P1;durP2;ratioP2;P2;SDS_P1;SDS_P2;PMS_P1;PMS_P2;Temp;Humidity;BMP_temperature;BMP_pressure;BME280_temperature;BME280_humidity;BME280_pressure;Samples;Min_cycle;Max_cycle;Signal;HPM_P1;HPM_P2
2021/12/16 00:08:55;;;;;;;70.07;46.60;;;9.00;21.20;;;;;;5040682;28;20673;-59
2021/12/16 00:35:42;;;;;;;64.80;39.10;;;9.00;1.00;;;;;;5041631;28;20729;-59
2021/12/16 00:38:11;;;;;;;63.17;40.00;;;9.00;1.00;;;;;;5040828;28;20210;-59
2021/12/16 00:40:41;;;;;;;65.77;39.03;;;9.10;99.90;;;;;;5023717;28;20230;-59
2021/12/16 00:43:19;;;;;;;65.37;40.30;;;9.00;99.90;;;;;;5023535;28;20242;-59
2021/12/16 00:48:24;;;;;;;66.33;39.37;;;9.10;1.00;;;;;;5023772;28;20203;-59
2021/12/16 00:56:14;;;;;;;66.93;38.83;;;9.00;1.00;;;;;;5041360;28;20261;-59
2021/12/16 00:58:53;;;;;;;63.80;39.93;;;9.00;1.00;;;;;;5024967;28;20953;-59
2021/12/16 01:06:48;;;;;;;64.83;39.77;;;8.90;1.00;;;;;;5024070;28;20298;-58
2021/12/16 01:50:37;;;;;;;67.47;40.20;;;9.00;1.00;;;;;;5037551;28;20199;-59
2021/12/16 01:59:02;;;;;;;66.63;39.17;;;9.00;1.00;;;;;;5016493;28;20222;-59
2021/12/16 02:01:33;;;;;;;64.00;38.73;;;9.00;1.00;;;;;;4996874;28;20196;-59
2021/12/16 02:04:24;;;;;;;70.83;38.83;;;9.00;1.00;;;;;;5032422;28;20350;-59
2021/12/16 02:09:39;;;;;;;68.07;40.43;;;8.80;1.00;;;;;;5029674;28;20282;-59
2021/12/16 02:12:32;;;;;;;71.53;41.03;;;8.80;1.00;;;;;;5013701;28;20617;-60
2021/12/16 02:34:23;;;;;;;80.83;42.40;;;8.20;99.90;;;;;;5034410;28;20246;-59
2021/12/16 02:36:54;;;;;;;78.37;40.73;;;8.10;1.00;;;;;;5035687;28;20196;-59
2021/12/16 02:39:31;;;;;;;74.63;42.83;;;8.00;1.00;;;;;;5040996;28;20243;-59
2021/12/16 02:42:13;;;;;;;77.70;42.50;;;7.90;99.90;;;;;;5035761;28;20200;-59
2021/12/16 02:49:58;;;;;;;90.10;46.23;;;8.20;1.00;;;;;;5037742;28;20241;-59
2021/12/16 02:52:27;;;;;;;92.27;47.20;;;8.20;99.90;;;;;;5035128;28;20211;-59
2021/12/16 02:54:54;;;;;;;92.80;47.73;;;8.30;99.90;;;;;;5018584;28;20261;-59
2021/12/16 02:57:24;;;;;;;101.20;49.97;;;8.30;99.90;;;;;;5033777;28;20919;-60
2021/12/16 02:59:52;;;;;;;96.47;49.20;;;8.40;99.90;;;;;;5017854;28;20199;-59
2021/12/16 03:02:21;;;;;;;110.07;54.80;;;8.40;92.60;;;;;;5037590;28;20188;-59
2021/12/16 03:04:51;;;;;;;103.13;53.03;;;8.50;1.00;;;;;;5021092;28;20216;-59
2021/12/16 03:07:20;;;;;;;105.90;51.97;;;8.50;99.90;;;;;;5022923;28;20707;-59
2021/12/16 03:15:17;;;;;;;102.63;51.13;;;8.50;1.00;;;;;;5020007;28;20210;-60
2021/12/16 03:17:57;;;;;;;103.23;50.97;;;8.60;1.00;;;;;;5035007;28;20302;-60
2021/12/16 03:23:12;;;;;;;104.70;50.10;;;8.60;99.90;;;;;;5036665;28;20230;-60
2021/12/16 03:37:15;;;;;;;83.33;44.37;;;8.70;1.00;;;;;;4983598;28;20253;-59
2021/12/16 03:39:57;;;;;;;75.93;41.73;;;8.70;1.00;;;;;;5037268;28;20756;-59
2021/12/16 03:42:32;;;;;;;77.23;41.17;;;8.70;99.90;;;;;;5002021;28;20730;-59
2021/12/16 03:46:25;;;;;;;72.60;39.40;;;8.70;99.90;;;;;;5021165;28;20254;-59
2021/12/16 03:48:00;;;;;;;79.20;41.63;;;8.70;99.90;;;;;;5023456;28;21154;-59
2021/12/16 03:50:28;;;;;;;78.00;40.67;;;8.70;90.10;;;;;;5023116;28;20262;-59
2021/12/16 03:52:55;;;;;;;73.90;39.53;;;8.70;89.10;;;;;;5019473;28;20248;-59
2021/12/16 03:55:22;;;;;;;68.57;38.80;;;8.70;98.90;;;;;;5020997;28;20201;-59
2021/12/16 03:57:50;;;;;;;75.10;40.20;;;8.70;87.50;;;;;;5022576;28;20201;-59
2021/12/16 04:00:30;;;;;;;73.70;39.77;;;8.70;46.10;;;;;;5038289;28;20508;-59
2021/12/16 04:03:01;;;;;;;72.30;40.27;;;8.70;27.30;;;;;;5018955;28;20205;-59
2021/12/16 04:05:32;;;;;;;82.93;43.57;;;8.70;57.80;;;;;;5018366;28;20212;-59
2021/12/16 04:08:05;;;;;;;78.60;41.50;;;8.70;90.80;;;;;;5009670;28;20251;-59
2021/12/16 04:10:45;;;;;;;78.60;41.03;;;8.70;60.60;;;;;;5007964;28;20269;-59
2021/12/16 04:13:17;;;;;;;76.43;41.33;;;8.70;1.00;;;;;;5021363;28;20216;-59
2021/12/16 04:15:48;;;;;;;93.73;48.33;;;8.70;1.00;;;;;;5020950;28;20880;-59
2021/12/16 04:18:17;;;;;;;74.03;40.40;;;8.70;1.00;;;;;;5022745;28;20330;-59
2021/12/16 04:20:46;;;;;;;71.60;38.70;;;8.70;1.00;;;;;;5025172;28;20225;-59
2021/12/16 04:23:18;;;;;;;73.80;38.37;;;8.60;3.10;;;;;;5002220;28;20208;-59
2021/12/16 04:25:47;;;;;;;71.90;36.37;;;8.60;75.20;;;;;;5002687;28;20660;-59
2021/12/16 04:28:19;;;;;;;73.23;38.73;;;8.70;41.60;;;;;;5020804;28;20273;-59
2021/12/16 04:30:47;;;;;;;70.93;37.33;;;8.70;1.00;;;;;;5019045;28;20223;-59
2021/12/16 04:33:15;;;;;;;76.53;38.00;;;8.70;1.00;;;;;;5019133;28;20224;-59
2021/12/16 04:35:43;;;;;;;77.83;38.73;;;8.70;1.00;;;;;;5019289;28;20196;-59
2021/12/16 04:38:12;;;;;;;76.83;38.70;;;8.70;1.00;;;;;;5006923;28;20284;-59
2021/12/16 04:40:45;;;;;;;71.87;38.23;;;8.70;1.00;;;;;;5034864;28;20277;-59
2021/12/16 04:43:19;;;;;;;74.53;38.50;;;8.70;1.00;;;;;;5024745;28;20195;-59
2021/12/16 04:46:16;;;;;;;78.33;39.20;;;8.70;1.00;;;;;;5038442;28;20211;-60
2021/12/16 04:48:47;;;;;;;67.77;36.57;;;8.70;1.00;;;;;;5039606;28;20567;-59
2021/12/16 04:51:31;;;;;;;77.23;39.47;;;8.60;1.00;;;;;;5037791;28;20215;-59
2021/12/16 04:53:58;;;;;;;76.83;37.03;;;8.70;1.00;;;;;;5033047;28;20208;-59
2021/12/16 04:56:28;;;;;;;71.40;38.23;;;8.70;1.00;;;;;;5015129;28;20208;-59
2021/12/16 04:59:08;;;;;;;74.63;37.37;;;8.60;1.00;;;;;;5032885;28;20219;-59
2021/12/16 05:01:40;;;;;;;80.13;40.77;;;8.60;1.00;;;;;;5038513;28;20187;-59
2021/12/16 05:04:10;;;;;;;81.23;40.60;;;8.60;1.00;;;;;;5005734;28;20353;-59
2021/12/16 05:06:37;;;;;;;85.40;43.77;;;8.60;1.00;;;;;;5022888;28;20199;-59
2021/12/16 05:09:09;;;;;;;86.57;44.33;;;8.60;1.00;;;;;;5039641;28;20283;-59
2021/12/16 05:11:43;;;;;;;70.77;40.77;;;8.70;1.00;;;;;;5039356;28;20252;-58
2021/12/16 05:14:10;;;;;;;81.20;41.80;;;8.70;1.00;;;;;;5041529;28;20207;-58
2021/12/16 05:16:42;;;;;;;74.57;38.93;;;8.70;1.00;;;;;;5039540;28;20205;-58
2021/12/16 05:19:09;;;;;;;80.43;40.67;;;8.70;1.00;;;;;;5038156;28;20299;-59
2021/12/16 05:21:47;;;;;;;75.27;39.90;;;8.80;1.00;;;;;;5038376;28;20245;-59
2021/12/16 05:24:27;;;;;;;76.63;40.10;;;8.80;1.00;;;;;;5035906;28;20219;-59
2021/12/16 05:27:03;;;;;;;79.23;40.30;;;8.80;1.00;;;;;;5039493;28;20199;-59
2021/12/16 05:29:30;;;;;;;86.03;42.20;;;8.80;1.00;;;;;;5021494;28;20204;-59
2021/12/16 05:32:01;;;;;;;81.47;40.87;;;8.80;1.00;;;;;;5033002;28;20768;-59
2021/12/16 05:34:28;;;;;;;85.07;42.77;;;8.90;1.00;;;;;;5020189;28;20214;-58
2021/12/16 05:36:55;;;;;;;76.93;39.83;;;8.90;1.00;;;;;;5020868;28;20204;-59
2021/12/16 05:39:24;;;;;;;86.73;42.37;;;8.90;1.00;;;;;;5037631;28;20251;-59
2021/12/16 05:42:06;;;;;;;86.53;42.50;;;8.90;1.00;;;;;;5008681;28;20200;-61
2021/12/16 05:44:33;;;;;;;83.30;41.80;;;8.80;1.00;;;;;;5020121;28;20243;-61
2021/12/16 05:47:00;;;;;;;88.43;44.53;;;8.80;1.00;;;;;;5038490;28;20209;-60
2021/12/16 05:49:28;;;;;;;83.90;43.47;;;8.80;1.00;;;;;;5022678;28;20595;-60
2021/12/16 05:51:55;;;;;;;86.43;44.93;;;8.90;1.00;;;;;;5021570;28;20294;-61
2021/12/16 05:54:22;;;;;;;87.13;43.67;;;8.80;1.00;;;;;;5038721;28;20309;-60
2021/12/16 05:57:07;;;;;;;92.97;45.60;;;8.80;1.00;;;;;;5034073;28;20193;-60
2021/12/16 05:59:35;;;;;;;90.63;47.27;;;8.80;1.00;;;;;;5020943;28;20334;-60
2021/12/16 06:02:03;;;;;;;101.00;47.13;;;8.80;1.00;;;;;;5021682;28;20199;-60
2021/12/16 06:04:34;;;;;;;89.47;46.90;;;8.90;1.00;;;;;;5021805;28;20225;-60
2021/12/16 06:07:09;;;;;;;94.00;46.83;;;8.90;1.00;;;;;;5009395;28;20199;-60
2021/12/16 06:09:36;;;;;;;96.40;46.77;;;8.90;1.00;;;;;;5036806;28;20211;-60
2021/12/16 06:12:03;;;;;;;91.70;47.23;;;8.90;16.80;;;;;;5037389;28;20200;-60
2021/12/16 06:22:55;;;;;;;92.97;45.50;;;8.80;99.90;;;;;;5036891;28;20779;-60
2021/12/16 06:28:09;;;;;;;84.53;44.97;;;8.90;99.90;;;;;;5038151;28;20199;-60
2021/12/16 06:30:39;;;;;;;94.13;45.13;;;8.90;99.90;;;;;;5038560;28;20204;-60
2021/12/16 06:33:10;;;;;;;90.63;44.83;;;8.90;99.90;;;;;;5021468;28;20562;-60
2021/12/16 06:35:37;;;;;;;91.53;45.13;;;8.90;99.90;;;;;;5036042;28;20209;-60
2021/12/16 06:38:08;;;;;;;89.93;46.33;;;8.90;99.90;;;;;;5032289;28;20257;-60
2021/12/16 06:40:50;;;;;;;88.87;44.30;;;8.90;99.90;;;;;;4998926;28;20684;-60
2021/12/16 06:43:40;;;;;;;88.93;43.87;;;8.90;99.90;;;;;;4981212;28;20573;-60
2021/12/16 06:46:12;;;;;;;84.77;43.70;;;8.90;99.90;;;;;;4973075;28;20213;-60
2021/12/16 06:48:42;;;;;;;87.63;44.67;;;8.90;99.90;;;;;;4998050;28;20664;-60
2021/12/16 06:51:19;;;;;;;88.47;45.43;;;8.90;99.90;;;;;;4994204;28;20252;-60
2021/12/16 06:54:02;;;;;;;95.10;44.83;;;8.90;99.90;;;;;;5010342;28;20319;-60
2021/12/16 06:56:57;;;;;;;89.87;44.90;;;8.90;99.90;;;;;;4994353;28;20438;-60
2021/12/16 06:59:27;;;;;;;89.40;45.00;;;8.90;99.90;;;;;;4994683;28;20638;-60
2021/12/16 07:04:47;;;;;;;85.77;44.47;;;8.90;99.90;;;;;;4996030;28;20224;-60
2021/12/16 07:07:15;;;;;;;96.87;49.23;;;8.90;99.90;;;;;;4992760;28;20205;-60
2021/12/16 07:09:42;;;;;;;94.43;49.17;;;8.90;99.90;;;;;;4995780;28;20288;-60
2021/12/16 07:12:10;;;;;;;88.60;45.63;;;8.90;99.90;;;;;;4996025;28;20232;-60
2021/12/16 07:14:39;;;;;;;83.60;43.03;;;8.90;99.90;;;;;;4995944;28;20217;-60
2021/12/16 07:17:13;;;;;;;93.27;44.33;;;8.90;99.90;;;;;;4996086;28;20213;-60
2021/12/16 07:19:42;;;;;;;89.53;45.00;;;8.90;99.90;;;;;;4998064;28;20193;-60
2021/12/16 07:22:11;;;;;;;92.07;45.10;;;8.90;99.90;;;;;;5011624;28;20209;-60
2021/12/16 07:24:39;;;;;;;94.17;45.67;;;9.00;99.90;;;;;;4996276;28;20256;-59
2021/12/16 07:27:07;;;;;;;88.53;44.47;;;9.00;99.90;;;;;;4996999;28;20197;-60
2021/12/16 07:29:35;;;;;;;88.27;44.93;;;9.00;99.90;;;;;;5014463;28;20193;-60
2021/12/16 07:32:03;;;;;;;95.93;46.20;;;9.00;99.90;;;;;;4995951;28;20608;-59
2021/12/16 07:34:30;;;;;;;87.50;43.83;;;8.90;99.90;;;;;;4997536;28;20217;-60
2021/12/16 07:36:59;;;;;;;90.37;46.07;;;8.90;99.90;;;;;;4996795;28;20200;-60
2021/12/16 07:39:37;;;;;;;95.23;47.60;;;8.90;99.90;;;;;;5007458;28;20223;-60
2021/12/16 07:42:08;;;;;;;91.77;45.23;;;9.00;99.90;;;;;;5035561;28;20206;-59
2021/12/16 07:44:35;;;;;;;98.90;44.80;;;8.90;99.90;;;;;;5019167;28;20199;-59
2021/12/16 07:47:10;;;;;;;92.00;44.77;;;9.00;1.00;;;;;;5036264;28;20200;-60
2021/12/16 07:49:41;;;;;;;91.67;44.63;;;9.00;99.90;;;;;;5037684;28;20199;-59
2021/12/16 07:52:17;;;;;;;90.00;45.00;;;9.00;99.90;;;;;;5035255;28;20225;-60
2021/12/16 07:54:45;;;;;;;93.33;45.47;;;9.10;99.90;;;;;;5035982;28;20224;-59
2021/12/16 07:57:12;;;;;;;92.53;44.40;;;9.00;99.90;;;;;;5036249;28;20311;-59
2021/12/16 07:59:39;;;;;;;87.33;44.40;;;9.00;99.90;;;;;;5036124;28;20188;-60
2021/12/16 08:02:11;;;;;;;81.97;43.53;;;9.00;99.90;;;;;;5033743;28;20200;-60
2021/12/16 08:04:43;;;;;;;93.80;45.30;;;9.00;99.90;;;;;;5037538;28;20683;-61
2021/12/16 08:07:14;;;;;;;87.47;43.60;;;9.10;99.90;;;;;;5016833;28;20252;-61
2021/12/16 08:09:42;;;;;;;83.83;41.80;;;9.00;99.90;;;;;;5026904;28;20695;-61
2021/12/16 08:12:12;;;;;;;90.93;43.43;;;9.10;99.90;;;;;;5026331;28;20187;-61
2021/12/16 08:14:41;;;;;;;91.90;41.90;;;9.10;99.90;;;;;;5031404;28;20285;-60
2021/12/16 08:17:09;;;;;;;86.63;44.00;;;9.10;99.90;;;;;;5032079;28;20200;-61
2021/12/16 08:19:36;;;;;;;92.27;45.10;;;9.10;99.90;;;;;;5035156;28;20231;-60
2021/12/16 08:22:04;;;;;;;91.53;43.73;;;9.10;99.90;;;;;;5032351;28;23069;-59
2021/12/16 08:24:33;;;;;;;87.00;43.17;;;9.10;99.90;;;;;;5025127;28;20218;-60
2021/12/16 08:27:06;;;;;;;87.57;43.63;;;9.10;99.90;;;;;;5039110;28;20192;-60
2021/12/16 08:29:33;;;;;;;85.70;43.40;;;9.20;99.90;;;;;;5039575;28;20610;-60
2021/12/16 08:32:00;;;;;;;93.70;45.60;;;9.20;99.90;;;;;;5037806;28;20206;-60
2021/12/16 08:34:30;;;;;;;82.37;42.10;;;9.20;99.90;;;;;;5024551;28;20220;-60
2021/12/16 08:36:57;;;;;;;89.27;42.67;;;9.20;99.90;;;;;;5038608;28;20200;-60
2021/12/16 08:39:25;;;;;;;82.83;42.17;;;9.20;1.00;;;;;;5039859;28;20228;-60
2021/12/16 08:41:56;;;;;;;82.70;43.47;;;9.20;1.00;;;;;;5024183;28;20196;-61
2021/12/16 08:44:24;;;;;;;86.03;43.03;;;9.30;1.00;;;;;;5036755;28;20204;-60
2021/12/16 08:46:59;;;;;;;84.17;43.10;;;9.30;1.00;;;;;;5024952;28;20207;-60
2021/12/16 08:49:27;;;;;;;91.53;42.53;;;9.30;1.00;;;;;;5039340;28;20226;-61
2021/12/16 08:51:56;;;;;;;85.07;43.03;;;9.30;1.00;;;;;;5038574;28;20220;-60
2021/12/16 08:54:23;;;;;;;89.93;42.63;;;9.30;1.00;;;;;;5039854;28;20311;-60
2021/12/16 08:56:51;;;;;;;99.53;46.23;;;9.30;1.00;;;;;;5037840;28;20261;-60
2021/12/16 08:59:19;;;;;;;90.00;43.57;;;9.40;1.00;;;;;;5037690;28;20283;-60
2021/12/16 09:01:49;;;;;;;90.47;44.53;;;9.40;1.00;;;;;;5038633;28;20207;-60
2021/12/16 09:04:19;;;;;;;96.83;46.00;;;9.40;1.00;;;;;;5008025;28;20226;-60
2021/12/16 09:06:47;;;;;;;91.83;44.13;;;9.40;1.00;;;;;;5036995;28;20655;-60
2021/12/16 09:09:14;;;;;;;84.03;44.60;;;9.50;1.00;;;;;;5021007;28;20192;-60
2021/12/16 09:12:00;;;;;;;91.33;44.60;;;9.50;1.00;;;;;;5039590;28;20660;-60
2021/12/16 09:14:27;;;;;;;86.87;43.77;;;9.50;1.00;;;;;;5037420;28;20780;-60
2021/12/16 09:16:54;;;;;;;88.00;43.30;;;9.60;1.00;;;;;;5035896;28;20606;-59
2021/12/16 09:19:21;;;;;;;89.23;43.73;;;9.60;1.00;;;;;;5039047;28;20257;-60
2021/12/16 09:21:49;;;;;;;92.43;44.33;;;9.60;1.00;;;;;;5038317;28;20253;-60
2021/12/16 09:24:16;;;;;;;92.63;46.20;;;9.60;1.00;;;;;;5017677;28;20204;-60
2021/12/16 09:26:44;;;;;;;96.60;44.90;;;9.60;1.00;;;;;;5038092;28;20850;-60
2021/12/16 09:29:12;;;;;;;95.60;45.27;;;9.60;1.00;;;;;;5040838;28;20192;-60
2021/12/16 09:31:39;;;;;;;90.87;43.40;;;9.60;1.00;;;;;;5037510;28;20200;-60
2021/12/16 09:34:08;;;;;;;91.90;44.80;;;9.60;1.00;;;;;;5038195;28;20226;-59
2021/12/16 09:36:39;;;;;;;99.20;47.00;;;9.50;1.00;;;;;;5036283;28;20283;-59
2021/12/16 09:39:12;;;;;;;99.17;45.83;;;9.50;1.00;;;;;;5036969;28;20596;-60
2021/12/16 09:41:46;;;;;;;96.03;46.50;;;9.50;1.00;;;;;;5020593;28;20192;-60
2021/12/16 09:44:14;;;;;;;93.13;44.90;;;9.50;1.00;;;;;;5037244;28;20233;-60
2021/12/16 09:46:44;;;;;;;96.80;44.23;;;9.50;1.00;;;;;;5035373;28;20562;-59
2021/12/16 09:49:12;;;;;;;89.73;45.37;;;9.60;1.00;;;;;;5019324;28;20188;-60
2021/12/16 09:51:43;;;;;;;93.00;44.87;;;9.60;1.00;;;;;;5036925;28;20233;-60
2021/12/16 09:54:16;;;;;;;94.43;44.57;;;9.60;1.00;;;;;;5024085;28;20234;-59
2021/12/16 09:56:45;;;;;;;98.40;45.83;;;9.70;1.00;;;;;;5036343;28;20198;-60
2021/12/16 09:59:14;;;;;;;93.70;44.93;;;9.70;1.00;;;;;;5019250;28;20222;-59
2021/12/16 10:01:44;;;;;;;89.60;44.33;;;9.70;99.90;;;;;;5021993;28;20192;-59
2021/12/16 10:04:15;;;;;;;86.90;43.73;;;9.80;99.90;;;;;;5038373;28;20797;-60
2021/12/16 10:06:42;;;;;;;76.83;41.83;;;9.90;99.90;;;;;;5026802;28;20241;-59
2021/12/16 10:09:10;;;;;;;76.63;42.83;;;10.00;99.90;;;;;;5038683;28;20275;-60
2021/12/16 10:11:43;;;;;;;77.37;42.23;;;10.10;99.90;;;;;;5023343;28;20287;-60
2021/12/16 10:19:28;;;;;;;76.97;42.57;;;10.20;1.00;;;;;;5026869;28;20214;-60
2021/12/16 10:22:19;;;;;;;88.83;43.43;;;10.20;1.00;;;;;;5029712;28;20343;-59
2021/12/16 10:24:47;;;;;;;83.33;45.87;;;10.10;1.00;;;;;;5029929;28;20223;-59
2021/12/16 10:27:18;;;;;;;85.07;45.80;;;10.10;1.00;;;;;;5031488;28;20227;-59
2021/12/16 10:29:52;;;;;;;90.27;46.33;;;10.10;1.00;;;;;;5037022;28;20192;-61
2021/12/16 10:32:42;;;;;;;92.03;47.57;;;10.20;1.00;;;;;;5035839;28;20956;-59
2021/12/16 10:35:27;;;;;;;91.03;46.87;;;10.20;1.00;;;;;;5035499;28;20675;-60
2021/12/16 10:38:05;;;;;;;82.20;46.90;;;10.20;1.00;;;;;;5035148;28;20194;-60
2021/12/16 10:40:44;;;;;;;94.23;47.23;;;10.20;1.00;;;;;;5036734;28;20741;-59
2021/12/16 10:43:16;;;;;;;92.87;48.20;;;10.20;1.00;;;;;;5033557;28;20249;-60
2021/12/16 10:45:47;;;;;;;85.27;45.27;;;10.20;1.00;;;;;;5020009;28;20199;-60
2021/12/16 10:48:19;;;;;;;88.27;47.53;;;10.30;1.00;;;;;;5032588;28;20196;-60
2021/12/16 10:50:53;;;;;;;93.70;46.87;;;10.30;1.00;;;;;;5035992;28;20289;-59
2021/12/16 10:53:42;;;;;;;88.77;44.33;;;10.40;1.00;;;;;;5037584;28;20223;-59
2021/12/16 10:56:09;;;;;;;85.43;46.27;;;10.50;1.00;;;;;;5037229;28;20247;-60
2021/12/16 10:58:56;;;;;;;85.03;44.70;;;10.40;1.00;;;;;;5036643;28;20204;-60
2021/12/16 11:01:45;;;;;;;81.40;43.57;;;10.50;1.00;;;;;;5033009;28;21167;-60
2021/12/16 11:04:17;;;;;;;76.90;43.47;;;10.50;1.00;;;;;;5033914;28;20223;-60
2021/12/16 11:06:55;;;;;;;71.53;39.83;;;10.50;1.00;;;;;;5035320;28;20199;-60
2021/12/16 11:09:34;;;;;;;70.77;37.70;;;10.50;1.00;;;;;;5035969;28;20475;-60
2021/12/16 11:12:25;;;;;;;70.43;37.77;;;10.60;1.00;;;;;;5036899;28;20191;-60
2021/12/16 11:15:21;;;;;;;65.30;38.40;;;10.60;1.00;;;;;;5028879;28;20215;-60
2021/12/16 11:18:14;;;;;;;68.20;38.07;;;10.70;1.00;;;;;;5028619;28;20295;-60
2021/12/16 11:20:49;;;;;;;67.83;37.87;;;10.70;1.00;;;;;;5037794;28;20194;-60
2021/12/16 11:23:38;;;;;;;67.33;38.23;;;10.70;99.90;;;;;;5023170;28;20863;-60
2021/12/16 11:26:09;;;;;;;69.57;38.13;;;10.70;99.90;;;;;;5036066;28;20709;-60
2021/12/16 11:28:39;;;;;;;72.07;38.83;;;10.70;99.90;;;;;;5030028;28;20706;-60
2021/12/16 11:31:23;;;;;;;67.17;39.30;;;10.70;99.90;;;;;;5029068;28;20585;-60
2021/12/16 11:34:00;;;;;;;69.70;38.10;;;10.70;99.90;;;;;;5029830;28;20215;-60
2021/12/16 11:36:35;;;;;;;80.17;42.93;;;10.70;99.90;;;;;;5034590;28;20297;-60
2021/12/16 11:39:08;;;;;;;80.37;46.97;;;10.60;99.90;;;;;;5019194;28;20543;-60
2021/12/16 11:41:39;;;;;;;72.93;42.00;;;10.60;99.90;;;;;;5035254;28;20200;-60
2021/12/16 11:44:20;;;;;;;72.50;42.47;;;10.60;99.90;;;;;;5034812;28;20188;-59
2021/12/16 11:46:58;;;;;;;70.90;40.93;;;10.70;99.90;;;;;;5018318;28;20198;-60
2021/12/16 11:49:46;;;;;;;68.73;40.33;;;10.70;99.90;;;;;;5019101;28;20200;-60
2021/12/16 11:52:15;;;;;;;69.43;40.63;;;10.60;99.90;;;;;;5034180;28;20257;-60
2021/12/16 11:55:18;;;;;;;70.70;43.00;;;10.70;1.00;;;;;;5033784;28;20246;-59
2021/12/16 11:57:50;;;;;;;70.93;40.33;;;10.60;1.00;;;;;;5013589;28;20208;-60
2021/12/16 12:00:26;;;;;;;71.97;40.03;;;10.60;1.00;;;;;;5021810;28;20241;-60
2021/12/16 12:03:05;;;;;;;71.10;40.53;;;10.60;99.90;;;;;;5039994;28;20187;-60
2021/12/16 12:05:34;;;;;;;79.33;41.07;;;10.70;99.90;;;;;;5022651;28;20214;-60
2021/12/16 12:08:10;;;;;;;65.37;38.40;;;10.70;99.90;;;;;;5038459;28;20203;-60
2021/12/16 12:10:45;;;;;;;78.77;43.00;;;10.80;99.90;;;;;;5041481;28;20258;-60
2021/12/16 12:13:41;;;;;;;70.33;39.30;;;10.80;99.90;;;;;;5038798;28;20570;-60
2021/12/16 12:16:19;;;;;;;72.77;40.63;;;10.80;99.90;;;;;;5016926;28;20227;-60
2021/12/16 12:18:51;;;;;;;72.00;42.10;;;10.80;99.90;;;;;;5040893;28;20686;-60
2021/12/16 12:21:18;;;;;;;65.30;39.30;;;10.80;99.90;;;;;;5037730;28;20255;-60
2021/12/16 12:23:47;;;;;;;82.57;44.33;;;10.80;99.90;;;;;;5003613;28;20211;-60
2021/12/16 12:26:16;;;;;;;74.80;42.03;;;10.80;99.90;;;;;;5039607;28;20207;-60
2021/12/16 12:28:49;;;;;;;68.00;38.60;;;10.90;99.90;;;;;;5038492;28;20737;-60
2021/12/16 12:31:23;;;;;;;64.10;35.97;;;11.00;99.90;;;;;;5038475;28;20282;-60
2021/12/16 12:33:51;;;;;;;74.63;39.70;;;11.00;99.90;;;;;;5019588;28;20208;-60
2021/12/16 12:36:20;;;;;;;76.10;39.93;;;11.00;99.90;;;;;;5036082;28;20243;-59
2021/12/16 12:38:47;;;;;;;73.23;39.83;;;11.10;99.90;;;;;;5038252;28;20198;-59
2021/12/16 12:41:14;;;;;;;70.37;38.27;;;11.20;99.90;;;;;;5037158;28;20222;-59
2021/12/16 12:43:41;;;;;;;64.40;37.40;;;11.30;29.80;;;;;;5039354;28;20310;-59
2021/12/16 12:46:10;;;;;;;65.27;39.63;;;11.30;1.00;;;;;;5038863;28;20548;-59
2021/12/16 12:48:40;;;;;;;71.73;39.73;;;11.30;1.00;;;;;;5037586;28;20612;-60
2021/12/16 12:51:08;;;;;;;68.97;38.73;;;11.40;1.00;;;;;;5021435;28;20203;-60
2021/12/16 12:53:50;;;;;;;71.80;40.37;;;11.50;1.00;;;;;;5021105;28;20524;-59
2021/12/16 12:56:32;;;;;;;65.83;37.40;;;11.50;1.00;;;;;;5021656;28;20266;-59
2021/12/16 12:59:04;;;;;;;72.80;38.10;;;11.40;1.00;;;;;;5022608;28;20203;-59
2021/12/16 13:01:44;;;;;;;77.23;40.73;;;11.30;1.00;;;;;;5002710;28;20560;-59
2021/12/16 13:04:42;;;;;;;74.33;41.40;;;11.20;1.00;;;;;;5037438;28;20243;-59
2021/12/16 13:07:11;;;;;;;72.13;37.90;;;11.20;21.10;;;;;;5035634;28;20192;-60
2021/12/16 13:09:45;;;;;;;68.03;38.10;;;11.30;12.80;;;;;;5034825;28;20282;-59
2021/12/16 13:12:24;;;;;;;65.43;38.17;;;11.30;1.00;;;;;;5032926;28;20237;-60
2021/12/16 13:15:02;;;;;;;71.07;39.07;;;11.40;15.10;;;;;;5042306;28;20204;-59
2021/12/16 13:23:34;;;;;;;62.80;35.00;;;11.60;1.00;;;;;;5021907;28;20203;-59
2021/12/16 13:26:30;;;;;;;72.43;35.77;;;11.40;1.00;;;;;;5024207;28;20199;-60
2021/12/16 13:29:15;;;;;;;68.17;35.97;;;11.30;1.00;;;;;;5011328;28;20205;-59
2021/12/16 13:32:09;;;;;;;56.73;34.90;;;11.10;1.00;;;;;;5007548;28;20241;-59
2021/12/16 13:34:41;;;;;;;63.50;36.10;;;11.00;99.90;;;;;;5032052;28;20273;-59
2021/12/16 13:37:44;;;;;;;62.80;36.83;;;11.00;99.90;;;;;;5040597;28;20875;-59
2021/12/16 13:40:24;;;;;;;62.70;35.97;;;11.00;99.90;;;;;;5045102;28;20764;-59
2021/12/16 13:43:00;;;;;;;78.20;35.63;;;11.00;99.90;;;;;;5043353;28;20219;-59
2021/12/16 13:45:39;;;;;;;63.93;36.97;;;11.00;80.40;;;;;;5027311;28;20195;-59
2021/12/16 14:02:15;;;;;;;58.90;35.60;;;10.70;99.90;;;;;;5040627;28;20855;-59
2021/12/16 14:05:00;;;;;;;61.23;34.33;;;10.70;99.90;;;;;;5045407;28;20220;-59
2021/12/16 14:07:57;;;;;;;60.53;35.93;;;10.70;99.90;;;;;;5025428;28;20625;-59
2021/12/16 14:10:44;;;;;;;64.63;36.77;;;10.70;99.90;;;;;;5025932;28;20188;-59
2021/12/16 14:49:48;;;;;;;58.07;32.53;;;10.30;1.00;;;;;;5038326;28;20554;-59
2021/12/16 14:52:22;;;;;;;56.33;34.23;;;10.30;1.00;;;;;;5036199;28;20262;-59
2021/12/16 14:54:56;;;;;;;61.97;36.13;;;10.20;1.00;;;;;;5036577;28;20204;-59
2021/12/16 14:57:28;;;;;;;59.67;34.27;;;10.20;1.00;;;;;;5036115;28;20609;-59
2021/12/16 14:59:55;;;;;;;64.40;35.57;;;10.20;1.00;;;;;;5039792;28;20595;-59
2021/12/16 15:02:29;;;;;;;66.50;35.50;;;10.20;1.00;;;;;;5038217;28;20237;-59
2021/12/16 15:04:56;;;;;;;61.67;36.33;;;10.20;1.00;;;;;;5038172;28;20593;-59
2021/12/16 15:07:26;;;;;;;62.87;35.03;;;10.10;1.00;;;;;;5019334;28;20212;-59
2021/12/16 15:09:55;;;;;;;66.60;36.17;;;10.10;1.00;;;;;;5035657;28;20204;-59
2021/12/16 15:15:23;;;;;;;68.00;37.03;;;10.10;1.00;;;;;;5037193;28;20235;-60
2021/12/16 15:34:01;;;;;;;77.33;39.23;;;10.00;70.70;;;;;;5039853;28;20284;-59
2021/12/16 15:45:24;;;;;;;94.17;43.13;;;10.00;99.90;;;;;;5041195;28;20195;-59
2021/12/16 15:48:26;;;;;;;114.73;46.80;;;9.90;99.90;;;;;;5042774;28;21111;-59
2021/12/16 15:50:56;;;;;;;93.10;45.67;;;9.90;99.90;;;;;;5010130;28;20234;-59
2021/12/16 15:53:41;;;;;;;99.10;45.80;;;9.90;99.90;;;;;;5040182;28;20602;-59
2021/12/16 15:56:16;;;;;;;113.83;52.60;;;9.90;99.90;;;;;;5040685;28;20257;-59
2021/12/16 15:58:49;;;;;;;124.73;61.57;;;9.90;99.90;;;;;;5025820;28;20199;-59
2021/12/16 16:01:24;;;;;;;123.93;59.53;;;9.90;99.90;;;;;;5041696;28;20196;-59
2021/12/16 16:03:51;;;;;;;121.23;63.63;;;9.90;99.90;;;;;;5043069;28;20253;-59
2021/12/16 16:06:20;;;;;;;107.97;48.50;;;9.90;99.90;;;;;;5023287;28;20236;-59
2021/12/16 16:08:54;;;;;;;108.40;50.17;;;9.90;99.90;;;;;;5040803;28;20192;-59
2021/12/16 16:11:26;;;;;;;118.33;51.83;;;9.90;99.90;;;;;;5041415;28;20231;-59
2021/12/16 16:13:59;;;;;;;125.77;57.23;;;9.90;99.90;;;;;;5043673;28;20207;-59
2021/12/16 16:16:40;;;;;;;121.40;54.77;;;9.90;1.00;;;;;;5042157;28;20207;-59
2021/12/16 16:31:01;;;;;;;129.33;60.50;;;9.90;1.00;;;;;;5093349;27;20386;-61
2021/12/16 16:33:32;;;;;;;124.07;57.43;;;9.90;1.00;;;;;;5102898;27;20189;-61
2021/12/16 16:36:04;;;;;;;129.77;55.17;;;9.90;1.00;;;;;;5102685;27;21062;-59
2021/12/16 16:38:37;;;;;;;120.00;55.63;;;9.80;1.00;;;;;;5098551;28;20205;-60
2021/12/16 16:41:09;;;;;;;113.27;53.83;;;9.80;1.00;;;;;;5107351;28;20185;-59
2021/12/16 16:43:44;;;;;;;133.60;55.37;;;9.80;1.00;;;;;;5103020;28;20188;-59
2021/12/16 16:46:18;;;;;;;127.43;53.40;;;9.80;1.00;;;;;;5113013;28;20543;-59
2021/12/16 16:48:54;;;;;;;115.87;53.53;;;9.70;1.00;;;;;;5103765;27;20204;-59
2021/12/16 16:51:31;;;;;;;125.07;53.37;;;9.70;1.00;;;;;;5094481;27;20675;-59
2021/12/16 16:54:20;;;;;;;123.80;54.87;;;9.80;1.00;;;;;;5107038;28;20942;-59
2021/12/16 16:56:57;;;;;;;120.60;55.03;;;9.70;1.00;;;;;;5109519;27;20206;-60
2021/12/16 16:59:47;;;;;;;118.93;53.47;;;10.00;1.00;;;;;;5121657;27;20236;-59
2021/12/16 17:02:31;;;;;;;113.70;51.80;;;9.70;1.00;;;;;;5106386;27;20193;-60
2021/12/16 17:05:11;;;;;;;107.37;52.47;;;9.70;1.00;;;;;;5102968;28;20896;-60
2021/12/16 17:07:53;;;;;;;106.93;48.37;;;9.70;1.00;;;;;;5103792;28;20321;-60
2021/12/16 17:10:35;;;;;;;104.50;50.13;;;9.70;1.00;;;;;;5101511;28;20276;-60
2021/12/16 17:14:16;;;;;;;110.93;51.50;;;9.70;1.00;;;;;;5108026;27;20205;-61
2021/12/16 17:18:53;;;;;;;108.57;54.97;;;9.70;1.00;;;;;;5104969;28;20293;-59
2021/12/16 17:21:24;;;;;;;114.03;52.77;;;9.70;1.00;;;;;;5090376;28;20220;-58
2021/12/16 17:23:59;;;;;;;104.97;52.30;;;9.70;1.00;;;;;;5089947;28;20672;-58
2021/12/16 17:26:40;;;;;;;112.97;54.67;;;9.70;1.00;;;;;;5091053;28;21133;-59
2021/12/16 17:29:19;;;;;;;112.57;54.97;;;9.70;1.00;;;;;;5085754;28;20239;-59